createdAt,value
2016-06-10T00:00:31.036Z,0
2016-06-10T00:01:31.086Z,0
2016-06-10T00:02:31.136Z,0
2016-06-10T00:03:31.154Z,0
2016-06-10T00:04:31.173Z,0
2016-06-10T00:05:31.115Z,0
2016-06-10T00:06:31.273Z,0
2016-06-10T00:07:31.152Z,0
2016-06-10T00:08:31.342Z,0
2016-06-10T00:09:31.439Z,0
2016-06-10T00:10:31.426Z,0
2016-06-10T00:11:31.461Z,0
2016-06-10T00:12:31.511Z,0
2016-06-10T00:13:31.545Z,0
2016-06-10T00:14:31.595Z,0
2016-06-10T00:15:31.645Z,0
2016-06-10T00:16:31.679Z,0
2016-06-10T00:17:31.777Z,0
2016-06-10T00:18:31.748Z,0
2016-06-10T00:19:31.797Z,0
2016-06-10T00:20:31.863Z,0
2016-06-10T00:21:31.914Z,0
2016-06-10T00:22:31.917Z,0
2016-06-10T00:23:31.981Z,0
2016-06-10T00:24:31.891Z,0
2016-06-10T00:25:32.035Z,0
2016-06-10T00:26:32.085Z,0
2016-06-10T00:27:32.166Z,0
2016-06-10T00:28:32.200Z,0
2016-06-10T00:29:32.063Z,0
2016-06-10T00:30:32.284Z,0
2016-06-10T00:31:32.319Z,0
2016-06-10T00:32:32.337Z,0
2016-06-10T00:33:32.371Z,0
2016-06-10T00:34:32.422Z,0
2016-06-10T00:35:32.441Z,0
2016-06-10T00:36:33.460Z,0
2016-06-10T00:37:34.431Z,0
2016-06-10T00:38:32.591Z,0
2016-06-10T00:39:32.656Z,0
2016-06-10T00:40:33.659Z,0
2016-06-10T00:41:32.693Z,0
2016-06-10T00:42:32.806Z,0
2016-06-10T00:43:32.778Z,0
2016-06-10T00:44:32.827Z,0
2016-06-10T00:45:32.862Z,0
2016-06-10T00:46:32.928Z,0
2016-06-10T00:47:33.009Z,0
2016-06-10T00:48:32.965Z,0
2016-06-10T00:49:33.030Z,0
2016-06-10T00:50:33.096Z,0
2016-06-10T00:51:33.131Z,0
2016-06-10T00:52:33.180Z,0
2016-06-10T00:53:33.199Z,0
2016-06-10T00:54:33.218Z,0
2016-06-10T00:55:33.799Z,0
2016-06-10T00:56:33.302Z,0
2016-06-10T00:57:33.399Z,0
2016-06-10T00:58:33.386Z,0
2016-06-10T00:59:33.421Z,0
2016-06-10T01:00:33.471Z,0
2016-06-10T01:01:33.505Z,0
2016-06-10T01:02:33.540Z,0
2016-06-10T01:03:33.574Z,0
2016-06-10T01:04:33.624Z,0
2016-06-10T01:05:33.658Z,0
2016-06-10T01:06:33.708Z,0
2016-06-10T01:07:33.773Z,0
2016-06-10T01:08:33.776Z,0
2016-06-10T01:09:35.342Z,0
2016-06-10T01:10:33.877Z,0
2016-06-10T01:11:33.943Z,0
2016-06-10T01:12:33.930Z,0
2016-06-10T01:13:33.980Z,0
2016-06-10T01:14:33.905Z,0
2016-06-10T01:15:34.095Z,0
2016-06-10T01:16:34.098Z,0
2016-06-10T01:17:34.148Z,0
2016-06-10T01:18:34.245Z,0
2016-06-10T01:19:34.217Z,0
2016-06-10T01:20:34.111Z,0
2016-06-10T01:21:34.301Z,0
2016-06-10T01:22:34.382Z,0
2016-06-10T01:23:34.416Z,0
2016-06-10T01:24:35.014Z,0
2016-06-10T01:25:34.328Z,0
2016-06-10T01:26:34.567Z,0
2016-06-10T01:27:34.553Z,0
2016-06-10T01:28:34.604Z,0
2016-06-10T01:29:34.653Z,0
2016-06-10T01:30:34.672Z,0
2016-06-10T01:31:34.721Z,0
2016-06-10T01:32:34.788Z,0
2016-06-10T01:33:34.806Z,0
2016-06-10T01:34:34.716Z,0
2016-06-10T01:35:34.734Z,0
2016-06-10T01:36:34.832Z,0
2016-06-10T01:37:35.568Z,0
2016-06-10T01:38:36.743Z,0
2016-06-10T01:39:35.029Z,0
2016-06-10T01:40:35.157Z,0
2016-06-10T01:41:35.127Z,0
2016-06-10T01:42:35.178Z,0
2016-06-10T01:43:35.197Z,0
2016-06-10T01:44:35.278Z,0
2016-06-10T01:45:35.297Z,0
2016-06-10T01:46:35.331Z,0
2016-06-10T01:47:35.396Z,0
2016-06-10T01:48:35.431Z,0
2016-06-10T01:49:35.434Z,0
2016-06-10T01:50:35.483Z,0
2016-06-10T01:51:35.519Z,0
2016-06-10T01:52:35.569Z,0
2016-06-10T01:53:35.602Z,0
2016-06-10T01:54:35.684Z,0
2016-06-10T01:55:36.609Z,0
2016-06-10T01:56:35.736Z,0
2016-06-10T01:57:35.771Z,0
2016-06-10T01:58:35.805Z,0
2016-06-10T01:59:35.996Z,0
2016-06-10T02:00:37.874Z,0
2016-06-10T02:01:35.939Z,0
2016-06-10T02:02:35.974Z,0
2016-06-10T02:03:36.008Z,0
2016-06-10T02:04:36.042Z,0
2016-06-10T02:05:36.093Z,0
2016-06-10T02:06:37.798Z,0
2016-06-10T02:07:36.161Z,0
2016-06-10T02:08:36.243Z,0
2016-06-10T02:09:36.276Z,0
2016-06-10T02:10:36.139Z,0
2016-06-10T02:11:38.063Z,0
2016-06-10T02:12:36.411Z,0
2016-06-10T02:13:36.414Z,0
2016-06-10T02:14:36.464Z,4
2016-06-10T02:15:36.482Z,4
2016-06-10T02:16:36.532Z,4
2016-06-10T02:17:36.567Z,0
2016-06-10T02:18:36.460Z,4
2016-06-10T02:19:36.682Z,4
2016-06-10T02:20:36.685Z,4
2016-06-10T02:21:36.735Z,4
2016-06-10T02:22:37.411Z,4
2016-06-10T02:23:36.819Z,8
2016-06-10T02:24:36.838Z,8
2016-06-10T02:25:36.591Z,8
2016-06-10T02:26:36.985Z,8
2016-06-10T02:27:37.004Z,12
2016-06-10T02:28:37.007Z,12
2016-06-10T02:29:37.041Z,12
2016-06-10T02:30:37.076Z,16
2016-06-10T02:31:37.109Z,20
2016-06-10T02:32:37.175Z,20
2016-06-10T02:33:37.241Z,24
2016-06-10T02:34:37.260Z,28
2016-06-10T02:35:37.293Z,28
2016-06-10T02:36:37.328Z,36
2016-06-10T02:37:37.394Z,40
2016-06-10T02:38:37.482Z,44
2016-06-10T02:39:37.538Z,48
2016-06-10T02:40:38.079Z,56
2016-06-10T02:41:37.745Z,60
2016-06-10T02:42:37.760Z,68
2016-06-10T02:43:37.808Z,76
2016-06-10T02:44:37.903Z,84
2016-06-10T02:45:37.935Z,96
2016-06-10T02:46:37.984Z,108
2016-06-10T02:47:38.027Z,116
2016-06-10T02:48:38.097Z,128
2016-06-10T02:49:38.106Z,140
2016-06-10T02:50:38.145Z,156
2016-06-10T02:51:38.215Z,172
2016-06-10T02:52:38.315Z,188
2016-06-10T02:53:38.273Z,204
2016-06-10T02:54:38.325Z,220
2016-06-10T02:55:38.392Z,236
2016-06-10T02:56:38.429Z,248
2016-06-10T02:57:38.449Z,264
2016-06-10T02:58:38.499Z,280
2016-06-10T02:59:38.487Z,300
2016-06-10T03:00:38.570Z,320
2016-06-10T03:01:38.620Z,340
2016-06-10T03:02:38.703Z,360
2016-06-10T03:03:38.720Z,376
2016-06-10T03:04:38.739Z,396
2016-06-10T03:05:38.774Z,412
2016-06-10T03:06:38.870Z,428
2016-06-10T03:07:38.858Z,452
2016-06-10T03:08:38.892Z,476
2016-06-10T03:09:38.989Z,504
2016-06-10T03:10:39.617Z,540
2016-06-10T03:11:39.011Z,568
2016-06-10T03:12:39.061Z,604
2016-06-10T03:13:39.142Z,640
2016-06-10T03:14:39.146Z,672
2016-06-10T03:15:39.179Z,708
2016-06-10T03:16:39.260Z,740
2016-06-10T03:17:39.280Z,768
2016-06-10T03:18:39.297Z,800
2016-06-10T03:19:39.363Z,832
2016-06-10T03:20:39.397Z,860
2016-06-10T03:21:39.432Z,888
2016-06-10T03:22:39.451Z,924
2016-06-10T03:23:39.500Z,948
2016-06-10T03:24:39.582Z,980
2016-06-10T03:25:39.819Z,1012
2016-06-10T03:26:39.604Z,1044
2016-06-10T03:27:39.685Z,1076
2016-06-10T03:28:39.735Z,1100
2016-06-10T03:29:39.738Z,1124
2016-06-10T03:30:39.773Z,1152
2016-06-10T03:31:39.853Z,1184
2016-06-10T03:32:39.919Z,1216
2016-06-10T03:33:39.907Z,1256
2016-06-10T03:34:39.940Z,1300
2016-06-10T03:35:39.990Z,1352
2016-06-10T03:36:40.041Z,1404
2016-06-10T03:37:40.060Z,1448
2016-06-10T03:38:40.141Z,1492
2016-06-10T03:39:40.159Z,1524
2016-06-10T03:40:40.397Z,1568
2016-06-10T03:41:40.212Z,1648
2016-06-10T03:42:40.326Z,1704
2016-06-10T03:43:40.359Z,1732
2016-06-10T03:44:40.332Z,1788
2016-06-10T03:45:40.381Z,1848
2016-06-10T03:46:40.430Z,1880
2016-06-10T03:47:40.450Z,1884
2016-06-10T03:48:40.500Z,1896
2016-06-10T03:49:40.534Z,1936
2016-06-10T03:50:40.568Z,1984
2016-06-10T03:51:40.618Z,2060
2016-06-10T03:52:40.668Z,2144
2016-06-10T03:53:40.718Z,2228
2016-06-10T03:54:40.799Z,2312
2016-06-10T03:55:41.240Z,2392
2016-06-10T03:56:40.822Z,2464
2016-06-10T03:57:40.903Z,2516
2016-06-10T03:58:40.890Z,2560
2016-06-10T03:59:40.955Z,2568
2016-06-10T04:00:41.021Z,2584
2016-06-10T04:01:41.040Z,2672
2016-06-10T04:02:41.057Z,2760
2016-06-10T04:03:41.093Z,2848
2016-06-10T04:04:41.189Z,2944
2016-06-10T04:05:41.208Z,3012
2016-06-10T04:06:41.211Z,3048
2016-06-10T04:07:41.261Z,3044
2016-06-10T04:08:41.342Z,3016
2016-06-10T04:09:41.923Z,2992
2016-06-10T04:10:42.973Z,2952
2016-06-10T04:11:42.960Z,2980
2016-06-10T04:12:42.058Z,3032
2016-06-10T04:13:42.077Z,3032
2016-06-10T04:14:42.032Z,3008
2016-06-10T04:15:41.958Z,3064
2016-06-10T04:16:42.225Z,3192
2016-06-10T04:17:42.198Z,3332
2016-06-10T04:18:42.295Z,3440
2016-06-10T04:19:42.345Z,3480
2016-06-10T04:20:42.363Z,3456
2016-06-10T04:21:43.367Z,3448
2016-06-10T04:22:43.213Z,3496
2016-06-10T04:23:42.514Z,3576
2016-06-10T04:24:42.532Z,3600
2016-06-10T04:25:42.739Z,3652
2016-06-10T04:26:42.617Z,3644
2016-06-10T04:27:42.401Z,3692
2016-06-10T04:28:42.357Z,3716
2016-06-10T04:29:42.735Z,3788
2016-06-10T04:30:42.769Z,3904
2016-06-10T04:31:42.257Z,3980
2016-06-10T04:32:42.291Z,4088
2016-06-10T04:33:42.325Z,4132
2016-06-10T04:34:42.375Z,4056
2016-06-10T04:35:42.394Z,3880
2016-06-10T04:36:42.428Z,3804
2016-06-10T04:37:42.478Z,3844
2016-06-10T04:38:42.575Z,3944
2016-06-10T04:39:42.562Z,3980
2016-06-10T04:40:42.456Z,4000
2016-06-10T04:41:42.772Z,3952
2016-06-10T04:42:42.743Z,3628
2016-06-10T04:43:42.716Z,3668
2016-06-10T04:44:42.766Z,4076
2016-06-10T04:45:42.862Z,4188
2016-06-10T04:46:42.881Z,4300
2016-06-10T04:47:42.884Z,4460
2016-06-10T04:48:43.043Z,4540
2016-06-10T04:49:43.093Z,4696
2016-06-10T04:50:42.877Z,4700
2016-06-10T04:51:43.052Z,4520
2016-06-10T04:52:43.119Z,4476
2016-06-10T04:53:43.261Z,4636
2016-06-10T04:54:43.218Z,4852
2016-06-10T04:55:43.752Z,5148
2016-06-10T04:56:44.162Z,5380
2016-06-10T04:57:43.321Z,5820
2016-06-10T04:58:43.184Z,5960
2016-06-10T04:59:43.483Z,5436
2016-06-10T05:00:43.627Z,5276
2016-06-10T05:01:43.458Z,5324
2016-06-10T05:02:43.493Z,5280
2016-06-10T05:03:43.558Z,5204
2016-06-10T05:04:43.655Z,4640
2016-06-10T05:05:43.626Z,4056
2016-06-10T05:06:43.662Z,3732
2016-06-10T05:07:43.804Z,3556
2016-06-10T05:08:43.776Z,3408
2016-06-10T05:09:44.733Z,3504
2016-06-10T05:10:43.892Z,3624
2016-06-10T05:11:43.769Z,3796
2016-06-10T05:12:43.945Z,3816
2016-06-10T05:13:43.948Z,4152
2016-06-10T05:14:44.436Z,4288
2016-06-10T05:15:44.032Z,4248
2016-06-10T05:16:44.082Z,4088
2016-06-10T05:17:44.132Z,3876
2016-06-10T05:18:44.010Z,3928
2016-06-10T05:19:44.202Z,3824
2016-06-10T05:20:44.236Z,3988
2016-06-10T05:21:44.285Z,3892
2016-06-10T05:22:44.367Z,3772
2016-06-10T05:23:44.354Z,3664
2016-06-10T05:24:45.029Z,3800
2016-06-10T05:25:44.485Z,3468
2016-06-10T05:26:45.160Z,2892
2016-06-10T05:27:44.663Z,3012
2016-06-10T05:28:44.557Z,3840
2016-06-10T05:29:44.607Z,3920
2016-06-10T05:30:45.188Z,3872
2016-06-10T05:31:45.753Z,3628
2016-06-10T05:32:45.491Z,3752
2016-06-10T05:33:44.759Z,3996
2016-06-10T05:34:44.826Z,4624
2016-06-10T05:35:44.844Z,5964
2016-06-10T05:36:44.926Z,6556
2016-06-10T05:37:44.960Z,6280
2016-06-10T05:38:45.010Z,5428
2016-06-10T05:39:45.013Z,4520
2016-06-10T05:40:45.063Z,4336
2016-06-10T05:41:45.144Z,4264
2016-06-10T05:42:45.131Z,4560
2016-06-10T05:43:45.338Z,4184
2016-06-10T05:44:46.981Z,4128
2016-06-10T05:45:45.281Z,4876
2016-06-10T05:46:45.659Z,5032
2016-06-10T05:47:45.380Z,4744
2016-06-10T05:48:45.259Z,4988
2016-06-10T05:49:45.419Z,5640
2016-06-10T05:50:47.844Z,6068
2016-06-10T05:51:45.517Z,6092
2016-06-10T05:52:45.537Z,5104
2016-06-10T05:53:45.603Z,5972
2016-06-10T05:54:45.621Z,7096
2016-06-10T05:55:46.468Z,8068
2016-06-10T05:56:46.049Z,8504
2016-06-10T05:57:45.771Z,8512
2016-06-10T05:58:45.806Z,8536
2016-06-10T05:59:45.887Z,9060
2016-06-10T06:00:45.874Z,9436
2016-06-10T06:01:45.908Z,8728
2016-06-10T06:02:45.989Z,7388
2016-06-10T06:03:46.024Z,6496
2016-06-10T06:04:46.027Z,5904
2016-06-10T06:05:46.092Z,5660
2016-06-10T06:06:46.377Z,5668
2016-06-10T06:07:46.739Z,5680
2016-06-10T06:08:46.195Z,7072
2016-06-10T06:09:46.292Z,8592
2016-06-10T06:10:46.311Z,8264
2016-06-10T06:11:47.329Z,7788
2016-06-10T06:12:46.395Z,7420
2016-06-10T06:13:46.415Z,7512
2016-06-10T06:14:46.448Z,7624
2016-06-10T06:15:46.967Z,7824
2016-06-10T06:16:46.814Z,8088
2016-06-10T06:17:46.739Z,8044
2016-06-10T06:18:46.633Z,8736
2016-06-10T06:19:47.636Z,7368
2016-06-10T06:20:47.920Z,7692
2016-06-10T06:21:49.064Z,7352
2016-06-10T06:22:48.442Z,6388
2016-06-10T06:23:54.226Z,5652
2016-06-10T06:24:54.823Z,5900
2016-06-10T06:25:52.966Z,7204
2016-06-10T06:26:50.641Z,5376
2016-06-10T06:27:49.083Z,4320
2016-06-10T06:28:49.570Z,4524
2016-06-10T06:29:49.525Z,5672
2016-06-10T06:30:50.294Z,7064
2016-06-10T06:31:51.907Z,7016
2016-06-10T06:32:50.426Z,6048
2016-06-10T06:33:50.085Z,4776
2016-06-10T06:34:50.072Z,4680
2016-06-10T06:35:51.060Z,5256
2016-06-10T06:36:51.594Z,6468
2016-06-10T06:37:52.034Z,7428
2016-06-10T06:38:50.272Z,8436
2016-06-10T06:39:51.212Z,10644
2016-06-10T06:40:54.154Z,11364
2016-06-10T06:41:50.531Z,11800
2016-06-10T06:42:50.190Z,11056
2016-06-10T06:43:49.975Z,10568
2016-06-10T06:44:49.228Z,9784
2016-06-10T06:45:50.294Z,8988
2016-06-10T06:46:51.203Z,8552
2016-06-10T06:47:52.784Z,7880
2016-06-10T06:48:51.334Z,7908
2016-06-10T06:49:53.134Z,8600
2016-06-10T06:50:51.356Z,9552
2016-06-10T06:52:00.328Z,9636
2016-06-10T06:52:50.893Z,8232
2016-06-10T06:53:51.146Z,6708
2016-06-10T06:54:51.274Z,5512
2016-06-10T06:55:52.011Z,4748
2016-06-10T06:56:49.984Z,4584
2016-06-10T06:57:51.456Z,4596
2016-06-10T06:58:50.849Z,4532
2016-06-10T06:59:53.086Z,4224
2016-06-10T07:00:52.512Z,4268
2016-06-10T07:01:52.374Z,4780
2016-06-10T07:02:51.830Z,5432
2016-06-10T07:03:51.583Z,5792
2016-06-10T07:04:50.681Z,5988
2016-06-10T07:05:50.714Z,6056
2016-06-10T07:06:51.108Z,7504
2016-06-10T07:07:51.206Z,7848
2016-06-10T07:08:51.334Z,8176
2016-06-10T07:09:52.055Z,8232
2016-06-10T07:10:52.042Z,7776
2016-06-10T07:11:51.405Z,7540
2016-06-10T07:12:50.986Z,7644
2016-06-10T07:13:53.224Z,7940
2016-06-10T07:14:52.289Z,8372
2016-06-10T07:15:53.167Z,8296
2016-06-10T07:16:52.529Z,8052
2016-06-10T07:17:52.548Z,7660
2016-06-10T07:18:52.285Z,8000
2016-06-10T07:19:53.085Z,8864
2016-06-10T07:20:51.621Z,9776
2016-06-10T07:21:52.373Z,9716
2016-06-10T07:22:58.313Z,9732
2016-06-10T07:23:57.613Z,10996
2016-06-10T07:24:53.789Z,12392
2016-06-10T07:25:54.261Z,13216
2016-06-10T07:26:52.732Z,13184
2016-06-10T07:27:53.438Z,12788
2016-06-10T07:28:55.551Z,11052
2016-06-10T07:29:58.132Z,8236
2016-06-10T07:30:53.073Z,7044
2016-06-10T07:31:56.591Z,6328
2016-06-10T07:32:52.891Z,6068
2016-06-10T07:33:52.801Z,6668
2016-06-10T07:34:52.413Z,6432
2016-06-10T07:35:54.416Z,6096
2016-06-10T07:36:53.528Z,6668
2016-06-10T07:37:55.407Z,6628
2016-06-10T07:38:57.129Z,6476
2016-06-10T07:39:53.944Z,7876
2016-06-10T07:40:58.041Z,8920
2016-06-10T07:41:56.263Z,8640
2016-06-10T07:42:55.047Z,8480
2016-06-10T07:43:55.160Z,9968
2016-06-10T07:44:57.194Z,10840
2016-06-10T07:45:54.837Z,11920
2016-06-10T07:46:54.653Z,13296
2016-06-10T07:47:53.781Z,15048
2016-06-10T07:48:53.488Z,16736
2016-06-10T07:49:54.380Z,17792
2016-06-10T07:50:52.759Z,17728
2016-06-10T07:51:54.418Z,18528
2016-06-10T07:52:52.233Z,20768
2016-06-10T07:53:51.862Z,21888
2016-06-10T07:54:51.646Z,21824
2016-06-10T07:55:55.259Z,22336
2016-06-10T07:56:52.527Z,23040
2016-06-10T07:57:52.000Z,22624
2016-06-10T07:58:51.393Z,22528
2016-06-10T07:59:51.380Z,21824
2016-06-10T08:00:51.665Z,21088
2016-06-10T08:01:52.778Z,20192
2016-06-10T08:02:53.858Z,19552
2016-06-10T08:03:54.768Z,19008
2016-06-10T08:04:54.021Z,18240
2016-06-10T08:05:54.337Z,17024
2016-06-10T08:06:54.168Z,15672
2016-06-10T08:07:55.202Z,14216
2016-06-10T08:08:54.471Z,12380
2016-06-10T08:09:54.724Z,10736
2016-06-10T08:10:54.742Z,9688
2016-06-10T08:11:55.230Z,10280
2016-06-10T08:12:51.452Z,11648
2016-06-10T08:13:51.455Z,11904
2016-06-10T08:14:51.676Z,11024
2016-06-10T08:15:51.586Z,10220
2016-06-10T08:16:51.636Z,11404
2016-06-10T08:17:51.670Z,14280
2016-06-10T08:18:51.720Z,16672
2016-06-10T08:19:51.708Z,16864
2016-06-10T08:20:51.742Z,15828
2016-06-10T08:21:51.901Z,15756
2016-06-10T08:22:51.951Z,15664
2016-06-10T08:23:52.126Z,15444
2016-06-10T08:24:52.613Z,15800
2016-06-10T08:25:52.085Z,16640
2016-06-10T08:26:52.166Z,16184
2016-06-10T08:27:52.185Z,16376
2016-06-10T08:28:53.422Z,17504
2016-06-10T08:29:53.707Z,18080
2016-06-10T08:30:54.616Z,20480
2016-06-10T08:31:54.260Z,19456
2016-06-10T08:32:55.466Z,19680
2016-06-10T08:33:55.844Z,20544
2016-06-10T08:34:56.409Z,20448
2016-06-10T08:35:56.647Z,19456
2016-06-10T08:36:55.619Z,18208
2016-06-10T08:37:58.841Z,19232
2016-06-10T08:38:55.563Z,17696
2016-06-10T08:39:55.784Z,20448
2016-06-10T08:40:53.584Z,22336
2016-06-10T08:41:54.838Z,18848
2016-06-10T08:42:54.606Z,12424
2016-06-10T08:43:54.078Z,9816
2016-06-10T08:44:53.862Z,9000
2016-06-10T08:45:53.365Z,8952
2016-06-10T08:46:53.728Z,9084
2016-06-10T08:47:54.794Z,9288
2016-06-10T08:48:54.703Z,8968
2016-06-10T08:49:54.581Z,7560
2016-06-10T08:50:53.928Z,7308
2016-06-10T08:51:53.150Z,10280
2016-06-10T08:52:54.262Z,11880
2016-06-10T08:53:54.671Z,13860
2016-06-10T08:54:54.488Z,15120
2016-06-10T08:55:54.975Z,18944
2016-06-10T08:56:53.946Z,19680
2016-06-10T08:57:54.778Z,20288
2016-06-10T08:58:54.734Z,19424
2016-06-10T08:59:55.612Z,20608
2016-06-10T09:00:54.474Z,23168
2016-06-10T09:01:55.587Z,20864
2016-06-10T09:02:54.496Z,18400
2016-06-10T09:03:56.421Z,19584
2016-06-10T09:04:55.705Z,20128
2016-06-10T09:05:55.350Z,19392
2016-06-10T09:06:56.415Z,21984
2016-06-10T09:07:56.214Z,24736
2016-06-10T09:08:56.514Z,22336
2016-06-10T09:09:56.142Z,23104
2016-06-10T09:10:55.192Z,22400
2016-06-10T09:11:58.398Z,23776
2016-06-10T09:12:57.260Z,25120
2016-06-10T09:13:59.436Z,25920
2016-06-10T09:14:57.096Z,27424
2016-06-10T09:15:57.082Z,27616
2016-06-10T09:16:59.305Z,24160
2016-06-10T09:17:57.745Z,21120
2016-06-10T09:18:57.483Z,17472
2016-06-10T09:19:57.876Z,19520
2016-06-10T09:20:57.285Z,22272
2016-06-10T09:21:58.429Z,25376
2016-06-10T09:22:57.745Z,22208
2016-06-10T09:23:56.030Z,22272
2016-06-10T09:24:56.830Z,24928
2016-06-10T09:25:56.926Z,28096
2016-06-10T09:26:54.929Z,26656
2016-06-10T09:27:54.807Z,20768
2016-06-10T09:28:55.028Z,19872
2016-06-10T09:29:55.392Z,19776
2016-06-10T09:30:56.816Z,21632
2016-06-10T09:31:56.944Z,24608
2016-06-10T09:32:56.995Z,26112
2016-06-10T09:33:55.075Z,24768
2016-06-10T09:34:55.016Z,26560
2016-06-10T09:35:55.035Z,22560
2016-06-10T09:36:55.209Z,23392
2016-06-10T09:37:55.166Z,22048
2016-06-10T09:38:55.059Z,22112
2016-06-10T09:39:56.704Z,28960
2016-06-10T09:40:55.285Z,33984
2016-06-10T09:41:55.647Z,32352
2016-06-10T09:42:56.010Z,30560
2016-06-10T09:43:55.419Z,28416
2016-06-10T09:44:55.328Z,30176
2016-06-10T09:45:55.644Z,27008
2016-06-10T09:46:55.600Z,27520
2016-06-10T09:47:55.587Z,27712
2016-06-10T09:48:55.638Z,27168
2016-06-10T09:49:55.704Z,26080
2016-06-10T09:50:56.362Z,26560
2016-06-10T09:51:56.303Z,26912
2016-06-10T09:52:57.088Z,26624
2016-06-10T09:53:55.887Z,26688
2016-06-10T09:54:57.625Z,26560
2016-06-10T09:55:56.300Z,26272
2016-06-10T09:56:57.975Z,26048
2016-06-10T09:57:58.665Z,28288
2016-06-10T09:58:58.199Z,28320
2016-06-10T09:59:59.218Z,27072
2016-06-10T10:00:57.924Z,25088
2016-06-10T10:01:57.552Z,24096
2016-06-10T10:02:57.414Z,24384
2016-06-10T10:03:56.918Z,23200
2016-06-10T10:04:59.093Z,22048
2016-06-10T10:05:56.424Z,22528
2016-06-10T10:06:56.615Z,23296
2016-06-10T10:07:56.587Z,22976
2016-06-10T10:08:56.574Z,23808
2016-06-10T10:09:56.593Z,24160
2016-06-10T10:10:56.689Z,22784
2016-06-10T10:11:56.755Z,23040
2016-06-10T10:12:56.742Z,23040
2016-06-10T10:13:56.620Z,23168
2016-06-10T10:14:56.530Z,21376
2016-06-10T10:15:56.752Z,17552
2016-06-10T10:16:56.926Z,22624
2016-06-10T10:17:56.820Z,23360
2016-06-10T10:18:56.854Z,25280
2016-06-10T10:19:57.046Z,24576
2016-06-10T10:20:57.095Z,21280
2016-06-10T10:21:57.269Z,22080
2016-06-10T10:22:57.211Z,22688
2016-06-10T10:23:57.089Z,22592
2016-06-10T10:24:57.295Z,22656
2016-06-10T10:25:57.360Z,22752
2016-06-10T10:26:57.785Z,21184
2016-06-10T10:27:58.054Z,20192
2016-06-10T10:28:57.494Z,19904
2016-06-10T10:29:57.419Z,20256
2016-06-10T10:30:57.547Z,22432
2016-06-10T10:31:57.597Z,24960
2016-06-10T10:32:57.663Z,22624
2016-06-10T10:33:57.698Z,24896
2016-06-10T10:34:57.732Z,18464
2016-06-10T10:35:57.829Z,16492
2016-06-10T10:36:57.941Z,15580
2016-06-10T10:38:00.804Z,42880
2016-06-10T10:38:57.760Z,73632
2016-06-10T10:39:57.810Z,92384
2016-06-10T10:40:58.032Z,104864
2016-06-10T10:41:58.051Z,102240
2016-06-10T10:42:58.429Z,50624
2016-06-10T10:43:58.165Z,103616
2016-06-10T10:44:58.263Z,48512
2016-06-10T10:45:58.329Z,64512
2016-06-10T10:46:58.159Z,115744
2016-06-10T10:47:58.177Z,81984
2016-06-10T10:48:58.212Z,60448
2016-06-10T10:49:58.434Z,50016
2016-06-10T10:50:58.469Z,73312
2016-06-10T10:51:58.378Z,59680
2016-06-10T10:52:58.100Z,52160
2016-06-10T10:53:58.603Z,45760
2016-06-10T10:54:58.528Z,51904
2016-06-10T10:55:58.750Z,69696
2016-06-10T10:56:58.644Z,83040
2016-06-10T10:57:59.381Z,102560
2016-06-10T10:58:58.978Z,107744
2016-06-10T11:00:01.808Z,109056
2016-06-10T11:01:00.858Z,111136
2016-06-10T11:01:59.330Z,112384
2016-06-10T11:02:59.443Z,112000
2016-06-10T11:03:59.118Z,114144
2016-06-10T11:04:59.355Z,111872
2016-06-10T11:05:59.265Z,110048
2016-06-10T11:06:59.299Z,106848
2016-06-10T11:07:59.318Z,105216
2016-06-10T11:08:59.383Z,106912
2016-06-10T11:09:59.417Z,112352
2016-06-10T11:10:59.499Z,116128
2016-06-10T11:11:59.455Z,120192
2016-06-10T11:12:59.693Z,125152
2016-06-10T11:13:59.711Z,126304
2016-06-10T11:14:59.714Z,122048
2016-06-10T11:15:59.624Z,115328
2016-06-10T11:16:59.861Z,105088
2016-06-10T11:18:00.849Z,101344
2016-06-10T11:18:59.930Z,106528
2016-06-10T11:19:59.995Z,113216
2016-06-10T11:21:00.109Z,123200
2016-06-10T11:22:00.127Z,133408
2016-06-10T11:23:00.207Z,134496
2016-06-10T11:24:00.274Z,130368
2016-06-10T11:25:00.323Z,116032
2016-06-10T11:26:00.327Z,108544
2016-06-10T11:27:00.455Z,102368
2016-06-10T11:28:01.380Z,101728
2016-06-10T11:29:00.570Z,106304
2016-06-10T11:30:00.572Z,117568
2016-06-10T11:31:00.670Z,133344
2016-06-10T11:32:00.704Z,151040
2016-06-10T11:33:00.785Z,152960
2016-06-10T11:34:00.804Z,148576
2016-06-10T11:35:00.854Z,145952
2016-06-10T11:36:00.935Z,135680
2016-06-10T11:37:00.985Z,133280
2016-06-10T11:38:01.113Z,133312
2016-06-10T11:39:01.132Z,130912
2016-06-10T11:40:01.182Z,147456
2016-06-10T11:41:01.262Z,148768
2016-06-10T11:42:01.297Z,151136
2016-06-10T11:43:01.238Z,153088
2016-06-10T11:44:01.412Z,148928
2016-06-10T11:45:01.548Z,146048
2016-06-10T11:46:01.684Z,144352
2016-06-10T11:47:01.758Z,143968
2016-06-10T11:48:01.816Z,148544
2016-06-10T11:49:01.988Z,146912
2016-06-10T11:50:02.350Z,141856
2016-06-10T11:51:02.117Z,142848
2016-06-10T11:52:02.198Z,141728
2016-06-10T11:53:02.246Z,143360
2016-06-10T11:54:02.290Z,147040
2016-06-10T11:55:02.392Z,148928
2016-06-10T11:56:02.572Z,148384
2016-06-10T11:57:02.706Z,147200
2016-06-10T11:58:03.354Z,139616
2016-06-10T11:59:02.674Z,132640
2016-06-10T12:00:02.865Z,129344
2016-06-10T12:01:02.761Z,127264
2016-06-10T12:02:04.189Z,130336
2016-06-10T12:03:04.053Z,135200
2016-06-10T12:04:02.823Z,138880
2016-06-10T12:05:03.029Z,138752
2016-06-10T12:06:03.111Z,132448
2016-06-10T12:07:03.145Z,125152
2016-06-10T12:08:05.243Z,121856
2016-06-10T12:09:03.293Z,121312
2016-06-10T12:10:03.343Z,127904
2016-06-10T12:11:03.378Z,131648
2016-06-10T12:12:03.445Z,136000
2016-06-10T12:13:04.198Z,136000
2016-06-10T12:14:03.608Z,132768
2016-06-10T12:15:04.735Z,129984
2016-06-10T12:16:03.708Z,126752
2016-06-10T12:17:03.772Z,124832
2016-06-10T12:18:03.823Z,126144
2016-06-10T12:19:03.888Z,130784
2016-06-10T12:20:04.876Z,132800
2016-06-10T12:21:04.035Z,129632
2016-06-10T12:22:04.663Z,126560
2016-06-10T12:23:05.369Z,125440
2016-06-10T12:24:03.451Z,127168
2016-06-10T12:25:04.907Z,128704
2016-06-10T12:26:06.034Z,134592
2016-06-10T12:27:04.647Z,133664
2016-06-10T12:28:05.182Z,129024
2016-06-10T12:29:04.278Z,121920
2016-06-10T12:30:04.579Z,112192
2016-06-10T12:31:04.519Z,114688
2016-06-10T12:32:05.943Z,117408
2016-06-10T12:33:04.790Z,124128
2016-06-10T12:34:05.559Z,128032
2016-06-10T12:35:04.969Z,129504
2016-06-10T12:36:04.956Z,126112
2016-06-10T12:37:06.615Z,121088
2016-06-10T12:38:04.993Z,120992
2016-06-10T12:39:05.466Z,122080
2016-06-10T12:40:05.624Z,125184
2016-06-10T12:41:05.252Z,129600
2016-06-10T12:42:05.880Z,130432
2016-06-10T12:43:05.322Z,128320
2016-06-10T12:44:06.075Z,125632
2016-06-10T12:45:05.547Z,119936
2016-06-10T12:46:05.612Z,115136
2016-06-10T12:47:06.396Z,115680
2016-06-10T12:48:06.540Z,118752
2016-06-10T12:49:05.871Z,120640
2016-06-10T12:50:05.827Z,123744
2016-06-10T12:51:05.878Z,125760
2016-06-10T12:52:08.146Z,123744
2016-06-10T12:53:06.056Z,121248
2016-06-10T12:54:05.917Z,118912
2016-06-10T12:55:07.014Z,117952
2016-06-10T12:56:06.064Z,116320
2016-06-10T12:57:06.943Z,116320
2016-06-10T12:58:06.008Z,117376
2016-06-10T12:59:07.480Z,122976
2016-06-10T13:00:07.733Z,118336
2016-06-10T13:01:07.220Z,127328
2016-06-10T13:02:07.505Z,125568
2016-06-10T13:03:08.664Z,123776
2016-06-10T13:04:07.714Z,121696
2016-06-10T13:05:07.451Z,122112
2016-06-10T13:06:07.470Z,122560
2016-06-10T13:07:08.490Z,124832
2016-06-10T13:08:07.195Z,126784
2016-06-10T13:09:07.136Z,129024
2016-06-10T13:10:07.544Z,128544
2016-06-10T13:11:08.954Z,122592
2016-06-10T13:12:07.723Z,122112
2016-06-10T13:13:07.757Z,121312
2016-06-10T13:14:09.104Z,119296
2016-06-10T13:15:08.810Z,120288
2016-06-10T13:16:08.001Z,119392
2016-06-10T13:17:07.988Z,112384
2016-06-10T13:18:08.804Z,111392
2016-06-10T13:19:08.744Z,109024
2016-06-10T13:20:09.825Z,108000